createdAt,value
2023-04-22T00:02:35.324Z,24.07
2023-04-22T00:07:33.457Z,23.86
2023-04-22T00:12:35.742Z,22.96
2023-04-22T00:17:32.031Z,23.57
2023-04-22T00:22:32.290Z,22.89
2023-04-22T00:27:31.547Z,23.22
2023-04-22T00:32:29.838Z,23.62
2023-04-22T00:37:28.101Z,24.14
2023-04-22T00:42:28.384Z,23.94
2023-04-22T00:47:27.648Z,25.65
2023-04-22T00:52:28.900Z,26.04
2023-04-22T00:57:26.166Z,26.27
2023-04-22T01:02:26.506Z,25.68
2023-04-22T01:07:24.601Z,26.09
2023-04-22T01:12:23.942Z,26.70
2023-04-22T01:17:23.224Z,27.51
2023-04-22T01:22:22.512Z,27.92
2023-04-22T01:27:21.815Z,26.74
2023-04-22T01:32:22.201Z,28.25
2023-04-22T01:37:21.276Z,27.26
2023-04-22T01:42:19.540Z,28.47
2023-04-22T01:47:18.804Z,29.08
2023-04-22T01:52:18.040Z,29.18
2023-04-22T01:57:18.307Z,26.90
2023-04-22T02:02:17.716Z,27.20
2023-04-22T02:07:16.811Z,28.91
2023-04-22T02:12:15.046Z,29.82
2023-04-22T02:17:16.286Z,28.42
2023-04-22T02:22:13.514Z,29.94
2023-04-22T02:27:14.780Z,28.94
2023-04-22T02:32:12.002Z,29.94
2023-04-22T02:37:12.267Z,28.36
2023-04-22T02:42:10.543Z,29.75
2023-04-22T02:47:10.810Z,30.46
2023-04-22T02:52:09.059Z,29.17
2023-04-22T02:57:08.333Z,29.74
2023-04-22T03:02:10.955Z,28.52
2023-04-22T03:07:07.832Z,27.35
2023-04-22T03:12:06.129Z,26.63
2023-04-22T03:17:05.422Z,25.95
2023-04-22T03:22:04.696Z,25.95
2023-04-22T03:27:04.005Z,27.24
2023-04-22T03:32:04.347Z,25.67
2023-04-22T03:37:03.651Z,26.68
2023-04-22T03:42:01.898Z,27.87
2023-04-22T03:47:02.149Z,26.39
2023-04-22T03:52:01.449Z,27.40
2023-04-22T03:57:00.690Z,27.72
2023-04-22T04:02:00.968Z,28.71
2023-04-22T04:06:58.242Z,28.92
2023-04-22T04:11:58.507Z,27.83
2023-04-22T04:16:56.779Z,29.04
2023-04-22T04:21:58.066Z,28.14
2023-04-22T04:26:56.312Z,28.66
2023-04-22T04:31:54.561Z,28.87
2023-04-22T04:36:54.851Z,28.57
2023-04-22T04:41:53.118Z,29.78
2023-04-22T04:46:53.436Z,29.67
2023-04-22T04:51:51.705Z,28.83
2023-04-22T04:56:50.965Z,27.29
2023-04-22T05:01:50.305Z,26.56
2023-04-22T05:06:49.572Z,25.61
2023-04-22T05:11:48.857Z,25.32
2023-04-22T05:16:48.225Z,25.23
2023-04-22T05:21:47.322Z,25.62
2023-04-22T05:26:47.579Z,25.93
2023-04-22T05:31:45.881Z,25.85
2023-04-22T05:36:45.102Z,26.35
2023-04-22T05:41:46.724Z,26.67
2023-04-22T05:46:43.607Z,27.18
2023-04-22T05:51:42.861Z,27.29
2023-04-22T05:56:43.118Z,27.90
2023-04-22T06:01:42.427Z,28.02
2023-04-22T06:06:40.676Z,28.31
2023-04-22T06:11:39.967Z,28.63
2023-04-22T06:16:39.247Z,28.84
2023-04-22T06:21:39.629Z,28.84
2023-04-22T06:26:37.713Z,28.75
2023-04-22T06:31:36.981Z,29.46
2023-04-22T06:36:36.259Z,29.35
2023-04-22T06:41:38.560Z,28.83
2023-04-22T06:46:35.871Z,27.69
2023-04-22T06:51:34.125Z,26.65
2023-04-22T06:56:33.396Z,26.25
2023-04-22T07:01:33.688Z,25.93
2023-04-22T07:06:31.948Z,25.82
2023-04-22T07:11:31.216Z,25.72
2023-04-22T07:16:31.658Z,25.43
2023-04-22T07:21:29.739Z,25.84
2023-04-22T07:26:29.024Z,26.13
2023-04-22T07:31:28.314Z,26.65
2023-04-22T07:36:28.595Z,26.87
2023-04-22T07:41:27.874Z,27.28
2023-04-22T07:46:27.154Z,27.59
2023-04-22T07:51:26.444Z,27.59
2023-04-22T07:56:24.740Z,28.10
2023-04-22T08:01:24.079Z,28.41
2023-04-22T08:06:23.349Z,28.52
2023-04-22T08:11:22.642Z,28.83
2023-04-22T08:16:21.983Z,28.92
2023-04-22T08:21:22.094Z,29.13
2023-04-22T08:26:20.330Z,28.71
2023-04-22T08:31:19.635Z,28.19
2023-04-22T08:36:19.958Z,27.47
2023-04-22T08:41:19.265Z,27.56
2023-04-22T08:46:17.597Z,26.73
2023-04-22T08:51:17.644Z,26.53
2023-04-22T08:56:15.894Z,26.52
2023-04-22T09:01:15.207Z,27.33
2023-04-22T09:06:14.488Z,26.93
2023-04-22T09:11:13.782Z,26.82
2023-04-22T09:16:14.101Z,27.55
2023-04-22T09:21:12.367Z,27.85
2023-04-22T09:26:12.668Z,28.15
2023-04-22T09:31:11.978Z,28.76
2023-04-22T09:36:10.281Z,28.96
2023-04-22T09:41:09.569Z,29.17
2023-04-22T09:46:09.900Z,30.28
2023-04-22T09:51:10.159Z,30.38
2023-04-22T09:56:08.454Z,30.89
2023-04-22T10:01:06.723Z,32.29
2023-04-22T10:06:06.013Z,33.30
2023-04-22T10:11:05.289Z,33.07
2023-04-22T10:16:06.540Z,34.27
2023-04-22T10:21:04.815Z,34.96
2023-04-22T10:26:05.064Z,34.63
2023-04-22T10:31:03.349Z,33.48
2023-04-22T10:36:02.618Z,32.38
2023-04-22T10:41:00.916Z,31.34
2023-04-22T10:46:00.215Z,32.26
2023-04-22T10:51:00.520Z,30.91
2023-04-22T10:55:59.841Z,30.50
2023-04-22T11:00:59.145Z,29.81
2023-04-22T11:05:57.428Z,31.02
2023-04-22T11:10:55.687Z,31.13
2023-04-22T11:15:56.029Z,32.14
2023-04-22T11:20:55.143Z,31.60
2023-04-22T11:25:55.415Z,32.53
2023-04-22T11:30:53.686Z,32.94
2023-04-22T11:35:53.944Z,32.43
2023-04-22T11:40:52.196Z,32.63
2023-04-22T11:45:51.558Z,31.60
2023-04-22T11:50:50.862Z,31.51
2023-04-22T11:55:51.164Z,32.21
2023-04-22T12:00:49.477Z,33.03
2023-04-22T12:05:50.315Z,32.93
2023-04-22T12:10:49.937Z,32.93
2023-04-22T12:15:49.174Z,32.31
2023-04-22T12:20:48.463Z,32.42
2023-04-22T12:25:45.779Z,33.12
2023-04-22T12:30:46.093Z,33.03
2023-04-22T12:35:44.347Z,33.01
2023-04-22T12:40:44.628Z,32.51
2023-04-22T12:45:42.946Z,32.00
2023-04-22T12:50:42.222Z,32.00
2023-04-22T12:55:42.502Z,31.29
2023-04-22T13:00:41.746Z,31.92
2023-04-22T13:05:40.054Z,32.03
2023-04-22T13:10:39.370Z,30.80
2023-04-22T13:15:37.661Z,30.09
2023-04-22T13:20:38.967Z,29.88
2023-04-22T13:25:37.241Z,30.49
2023-04-22T13:30:36.592Z,30.80
2023-04-22T13:35:36.862Z,30.49
2023-04-22T13:40:35.126Z,29.97
2023-04-22T13:45:37.496Z,29.55
2023-04-22T13:50:33.748Z,29.47
2023-04-22T13:55:33.067Z,29.66
2023-04-22T14:00:31.412Z,29.09
2023-04-22T14:05:31.693Z,28.70
2023-04-22T14:10:31.024Z,29.11
2023-04-22T14:15:30.340Z,29.20
2023-04-22T14:20:29.615Z,29.20
2023-04-22T14:25:28.963Z,28.39
2023-04-22T14:30:30.235Z,29.30
2023-04-22T14:35:28.525Z,29.41
2023-04-22T14:40:27.816Z,29.92
2023-04-22T14:45:26.113Z,29.32
2023-04-22T14:50:26.441Z,29.09
2023-04-22T14:55:25.730Z,28.78
2023-04-22T15:00:25.017Z,28.99
2023-04-22T15:05:25.307Z,29.71
2023-04-22T15:10:22.626Z,29.92
2023-04-22T15:15:21.885Z,30.62
2023-04-22T15:20:22.196Z,30.30
2023-04-22T15:25:20.483Z,30.40
2023-04-22T15:30:20.764Z,30.91
2023-04-22T15:35:19.037Z,31.29
2023-04-22T15:40:18.356Z,31.41
2023-04-22T15:45:17.698Z,31.71
2023-04-22T15:50:17.928Z,31.92
2023-04-22T15:55:16.179Z,31.60
2023-04-22T16:00:15.484Z,31.90
2023-04-22T16:05:15.060Z,31.41
2023-04-22T16:10:13.965Z,31.71
2023-04-22T16:15:15.238Z,31.92
2023-04-22T16:20:12.522Z,31.92
2023-04-22T16:25:12.777Z,32.12
2023-04-22T16:30:13.751Z,32.14
2023-04-22T16:35:10.280Z,31.93
2023-04-22T16:40:09.555Z,31.74
2023-04-22T16:45:08.826Z,31.52
2023-04-22T16:50:10.108Z,31.11
2023-04-22T16:55:09.337Z,30.60
2023-04-22T17:00:07.596Z,30.71
2023-04-22T17:05:06.849Z,30.52
2023-04-22T17:10:05.250Z,30.93
2023-04-22T17:15:04.515Z,31.55
2023-04-22T17:20:04.782Z,31.65
2023-04-22T17:25:02.927Z,31.96
2023-04-22T17:30:03.021Z,30.71
2023-04-22T17:35:01.266Z,30.40
2023-04-22T17:39:59.595Z,31.13
2023-04-22T17:45:00.858Z,31.01
2023-04-22T17:49:59.141Z,31.24
2023-04-22T17:55:00.588Z,31.63
2023-04-22T17:59:57.630Z,31.63
2023-04-22T18:04:56.905Z,31.54
2023-04-22T18:09:56.189Z,31.24
2023-04-22T18:14:55.533Z,31.02
2023-04-22T18:20:06.339Z,30.94
2023-04-22T18:24:54.994Z,31.44
2023-04-22T18:29:53.231Z,31.75
2023-04-22T18:34:52.493Z,32.57
2023-04-22T18:39:53.786Z,33.29
2023-04-22T18:44:52.074Z,33.78
2023-04-22T18:49:50.343Z,33.37
2023-04-22T18:54:50.620Z,33.80
2023-04-22T18:59:50.123Z,33.29
2023-04-22T19:04:49.148Z,34.33
2023-04-22T19:09:47.600Z,35.56
2023-04-22T19:14:46.541Z,35.13
2023-04-22T19:19:45.837Z,33.18
2023-04-22T19:24:46.117Z,34.20
2023-04-22T19:29:44.690Z,32.97
2023-04-22T19:34:43.948Z,33.29
2023-04-22T19:39:44.227Z,36.80
2023-04-22T19:44:42.514Z,38.59
2023-04-22T19:49:42.955Z,37.77
2023-04-22T19:54:43.079Z,40.73
2023-04-22T19:59:42.307Z,42.27
2023-04-22T20:04:39.493Z,43.42
2023-04-22T20:09:39.837Z,44.34
2023-04-22T20:14:37.806Z,44.22
2023-04-22T20:19:38.285Z,44.95
2023-04-22T20:24:37.304Z,45.17
2023-04-22T20:29:35.586Z,45.09
2023-04-22T20:34:34.884Z,44.99
2023-04-22T20:39:34.224Z,44.22
2023-04-22T20:44:35.516Z,43.72
2023-04-22T20:49:51.859Z,44.62
2023-04-22T20:54:33.076Z,45.34
2023-04-22T20:59:31.206Z,46.11
2023-04-22T21:04:31.460Z,47.77
2023-04-22T21:09:29.531Z,47.74
2023-04-22T21:14:28.856Z,47.97
2023-04-22T21:19:28.213Z,45.41
2023-04-22T21:24:28.292Z,46.11
2023-04-22T21:29:26.584Z,46.39
2023-04-22T21:34:27.878Z,46.04
2023-04-22T21:39:27.156Z,46.49
2023-04-22T21:44:25.474Z,48.00
2023-04-22T21:49:25.782Z,48.00
2023-04-22T21:54:23.256Z,47.92
2023-04-22T21:59:22.340Z,50.33
2023-04-22T22:04:22.889Z,49.73
2023-04-22T22:09:19.943Z,48.61
2023-04-22T22:14:21.238Z,48.39
2023-04-22T22:19:19.348Z,50.45
2023-04-22T22:24:18.841Z,51.59
2023-04-22T22:29:17.958Z,51.36
2023-04-22T22:34:21.569Z,50.83
2023-04-22T22:39:16.464Z,50.53
2023-04-22T22:44:16.775Z,50.73
2023-04-22T22:49:15.098Z,51.38
2023-04-22T22:54:15.516Z,51.99
2023-04-22T22:59:14.641Z,53.83
2023-04-22T23:04:14.022Z,54.25
2023-04-22T23:09:13.097Z,52.92
2023-04-22T23:14:11.228Z,53.30
2023-04-22T23:19:10.368Z,51.97
2023-04-22T23:24:09.646Z,47.47
2023-04-22T23:29:08.944Z,46.35
2023-04-22T23:34:08.214Z,45.60
2023-04-22T23:39:07.488Z,45.20
2023-04-22T23:44:06.768Z,44.78
2023-04-22T23:49:08.132Z,44.46
2023-04-22T23:54:05.269Z,43.54
2023-04-22T23:59:04.355Z,43.54
